Time;durP1;ratioP1;P1;durP2;ratioP2;P2;SDS_P1;SDS_P2;PMS_P1;PMS_P2;Temp;Humidity;BMP_temperature;BMP_pressure;BME280_temperature;BME280_humidity;BME280_pressure;Samples;Min_cycle;Max_cycle;Signal;HPM_P1;HPM_P2
2022/01/08 00:00:11;;;;;;;;;3.00;3.00;;;;;20.53;39.38;100628.56;5059564;28;59810;-77
2022/01/08 00:02:37;;;;;;;;;4.00;2.00;;;;;20.49;39.61;100621.59;5061233;28;45484;-77
2022/01/08 00:05:03;;;;;;;;;7.25;3.75;;;;;20.53;39.45;100628.56;5060360;28;45449;-77
2022/01/08 00:07:28;;;;;;;;;3.00;3.00;;;;;20.49;39.35;100638.38;5060345;28;45278;-77
2022/01/08 00:09:54;;;;;;;;;4.00;4.00;;;;;20.48;39.24;100635.78;5059854;28;47662;-78
2022/01/08 00:12:19;;;;;;;;;3.50;3.50;;;;;20.48;39.08;100646.38;5060570;28;45256;-77
2022/01/08 00:14:45;;;;;;;;;3.00;3.00;;;;;20.42;39.32;100650.09;5061300;28;46018;-78
2022/01/08 00:17:10;;;;;;;;;4.50;3.00;;;;;20.42;39.57;100657.19;5061178;28;45425;-78
2022/01/08 00:19:36;;;;;;;;;1.25;1.25;;;;;20.40;39.35;100669.59;5059958;28;53015;-77
2022/01/08 00:22:01;;;;;;;;;2.25;2.25;;;;;20.38;39.59;100682.03;5060225;28;45239;-78
2022/01/08 00:24:27;;;;;;;;;2.50;2.50;;;;;20.38;39.44;100676.72;5059880;28;45291;-78
2022/01/08 00:26:52;;;;;;;;;6.00;3.00;;;;;20.35;39.64;100668.88;5059711;28;54338;-77
2022/01/08 00:29:17;;;;;;;;;2.00;2.00;;;;;20.33;39.54;100674.25;5042987;28;45240;-77
2022/01/08 00:31:43;;;;;;;;;3.00;3.00;;;;;20.32;39.13;100668.03;5059634;28;45476;-77
2022/01/08 00:34:08;;;;;;;;;5.50;4.50;;;;;20.32;39.73;100667.19;5061114;28;45393;-76
2022/01/08 00:36:34;;;;;;;;;4.00;2.75;;;;;20.31;39.62;100674.25;5043139;28;45521;-77
2022/01/08 00:38:59;;;;;;;;;4.00;3.00;;;;;20.31;39.97;100678.69;5042468;28;45983;-77
2022/01/08 00:41:25;;;;;;;;;3.25;3.00;;;;;20.29;39.38;100678.75;5060938;28;50136;-77
2022/01/08 00:43:51;;;;;;;;;3.75;3.00;;;;;20.26;39.68;100692.13;5042915;28;45257;-76
2022/01/08 00:46:16;;;;;;;;;2.00;2.00;;;;;20.23;39.34;100684.25;5059237;28;45369;-76
2022/01/08 00:48:44;;;;;;;;;3.00;2.00;;;;;20.21;39.33;100696.69;5060699;28;45468;-76
2022/01/08 00:51:09;;;;;;;;;4.25;2.00;;;;;20.18;39.17;100701.22;5059830;28;45235;-76
2022/01/08 00:53:35;;;;;;;;;2.75;2.50;;;;;20.16;39.37;100706.56;5060835;28;45216;-76
2022/01/08 00:56:00;;;;;;;;;2.25;2.25;;;;;20.12;39.20;100704.06;5058944;28;45197;-77
2022/01/08 00:58:26;;;;;;;;;4.25;2.00;;;;;20.13;39.36;100725.19;5060766;28;61306;-77
2022/01/08 01:00:51;;;;;;;;;2.00;2.00;;;;;20.11;39.27;100718.22;5059561;28;45335;-76
2022/01/08 01:03:17;;;;;;;;;1.00;1.00;;;;;20.11;39.18;100719.09;5026189;28;45267;-77
2022/01/08 01:05:42;;;;;;;;;1.25;1.25;;;;;20.12;39.24;100712.88;5060627;28;45227;-76
2022/01/08 01:08:07;;;;;;;;;3.25;3.00;;;;;20.09;39.39;100718.28;5060315;28;51009;-76
2022/01/08 01:10:33;;;;;;;;;3.00;2.25;;;;;20.05;39.76;100717.47;5042308;28;45551;-76
2022/01/08 01:12:58;;;;;;;;;3.00;3.00;;;;;20.08;39.49;100727.13;5060723;28;45489;-76
2022/01/08 01:15:24;;;;;;;;;4.75;3.75;;;;;20.07;39.52;100728.06;5059323;28;45628;-76
2022/01/08 01:17:49;;;;;;;;;2.75;2.00;;;;;20.05;39.41;100733.38;5058604;28;48806;-76
2022/01/08 01:20:16;;;;;;;;;4.50;3.00;;;;;20.05;39.62;100735.16;5042463;28;45374;-76
2022/01/08 01:23:30;;;;;;;;;3.00;2.25;;;;;20.00;39.50;100715.91;5059247;28;45288;-76
2022/01/08 01:25:45;;;;;;;;;2.25;2.25;;;;;20.00;39.56;100727.38;5055313;28;45482;-76
2022/01/08 01:49:04;;;;;;;;;3.00;2.75;;;;;19.94;39.33;100722.22;5044992;28;45223;-76
2022/01/08 01:51:30;;;;;;;;;2.00;2.00;;;;;19.93;39.17;100722.28;5041908;28;45190;-77
2022/01/08 01:53:55;;;;;;;;;4.25;2.25;;;;;19.95;39.54;100731.03;5042095;28;45282;-76
2022/01/08 01:56:21;;;;;;;;;5.25;3.75;;;;;19.95;39.51;100731.03;5041541;28;47552;-77
2022/01/08 01:58:47;;;;;;;;;2.00;2.00;;;;;19.89;39.32;100726.78;5058696;28;45342;-77
2022/01/08 02:01:12;;;;;;;;;3.00;3.00;;;;;19.91;39.42;100725.00;5041686;28;45286;-77
2022/01/08 02:03:39;;;;;;;;;2.00;2.00;;;;;19.91;39.55;100732.06;5042213;28;45511;-77
2022/01/08 02:06:05;;;;;;;;;2.50;2.50;;;;;19.92;39.37;100728.50;5042102;28;45505;-77
2022/01/08 02:08:30;;;;;;;;;3.00;3.00;;;;;19.89;39.18;100724.13;5058601;28;46470;-77
2022/01/08 02:10:56;;;;;;;;;2.00;2.00;;;;;19.90;38.96;100720.59;5058367;28;45318;-76
2022/01/08 02:13:22;;;;;;;;;3.75;3.25;;;;;19.90;39.46;100720.59;5058672;28;45706;-76
2022/01/08 02:15:51;;;;;;;;;3.00;3.00;;;;;19.89;39.34;100720.63;5059517;28;45440;-77
2022/01/08 02:18:17;;;;;;;;;6.75;5.25;;;;;19.87;39.78;100728.63;5047573;28;46255;-77
2022/01/08 02:20:42;;;;;;;;;4.00;3.00;;;;;19.85;39.71;100735.75;5058353;28;45303;-77
2022/01/08 02:23:08;;;;;;;;;4.50;3.25;;;;;19.88;39.65;100734.78;5058730;28;45514;-78
2022/01/08 02:25:33;;;;;;;;;3.00;3.00;;;;;19.86;39.69;100737.47;5058460;28;45565;-77
2022/01/08 02:27:59;;;;;;;;;2.25;2.25;;;;;19.85;39.62;100733.09;5041605;28;46375;-77
2022/01/08 02:30:24;;;;;;;;;3.00;2.00;;;;;19.86;39.80;100737.47;5059086;28;58909;-77
2022/01/08 02:32:49;;;;;;;;;3.00;2.00;;;;;19.86;39.63;100748.06;5058048;28;45411;-77
2022/01/08 02:35:16;;;;;;;;;5.00;2.75;;;;;19.84;39.63;100744.63;5041651;28;45426;-77
2022/01/08 02:37:42;;;;;;;;;3.75;2.00;;;;;19.79;40.11;100738.56;5059232;28;45448;-77
2022/01/08 02:40:08;;;;;;;;;2.25;2.25;;;;;19.83;39.80;100747.31;5041360;28;45382;-77
2022/01/08 02:42:39;;;;;;;;;3.00;3.00;;;;;19.83;39.97;100749.97;5062182;28;45274;-77
2022/01/08 02:45:05;;;;;;;;;3.00;3.00;;;;;19.80;39.84;100750.03;5045603;28;45490;-77
2022/01/08 02:47:30;;;;;;;;;4.00;4.00;;;;;19.81;39.39;100754.41;5062632;28;46066;-77
2022/01/08 02:49:56;;;;;;;;;3.25;3.00;;;;;19.80;39.80;100747.38;5062542;28;48089;-77
2022/01/08 02:52:22;;;;;;;;;3.75;3.75;;;;;19.81;39.74;100749.13;5061475;28;46771;-77
2022/01/08 02:54:48;;;;;;;;;5.00;5.00;;;;;19.80;39.80;100752.69;5044572;28;45452;-77
2022/01/08 02:57:13;;;;;;;;;3.50;3.50;;;;;19.80;39.59;100758.84;5061401;28;46181;-77
2022/01/08 02:59:38;;;;;;;;;3.00;3.00;;;;;19.80;39.82;100772.06;5060903;28;57814;-77
2022/01/08 03:02:04;;;;;;;;;4.50;3.00;;;;;19.81;39.90;100765.91;5061217;28;45429;-77
2022/01/08 03:04:29;;;;;;;;;3.00;3.00;;;;;19.81;39.62;100771.19;5061201;28;45485;-77
2022/01/08 03:06:55;;;;;;;;;4.75;4.00;;;;;19.82;39.72;100761.47;5061320;28;46445;-77
2022/01/08 03:09:20;;;;;;;;;4.25;4.25;;;;;19.80;39.93;100757.97;5062564;28;45240;-76
2022/01/08 03:11:46;;;;;;;;;4.50;3.75;;;;;19.78;39.88;100760.66;5061393;28;45761;-77
2022/01/08 03:14:11;;;;;;;;;6.00;3.50;;;;;19.77;39.94;100754.50;5061289;28;45251;-77
2022/01/08 03:16:37;;;;;;;;;3.50;3.50;;;;;19.75;39.67;100745.75;5060827;28;45491;-77
2022/01/08 03:19:09;;;;;;;;;2.00;2.00;;;;;19.76;40.00;100751.91;5060899;28;45352;-77
2022/01/08 03:21:36;;;;;;;;;3.00;3.00;;;;;19.75;40.13;100752.81;5045288;28;45312;-77
2022/01/08 03:24:03;;;;;;;;;3.00;3.00;;;;;19.75;39.76;100758.97;5027972;28;45367;-77
2022/01/08 03:26:28;;;;;;;;;2.50;2.50;;;;;19.75;39.80;100747.53;5060919;28;48131;-77
2022/01/08 03:28:54;;;;;;;;;3.75;3.50;;;;;19.71;39.96;100744.06;5044103;28;45832;-77
2022/01/08 03:31:20;;;;;;;;;3.50;2.25;;;;;19.73;39.96;100741.41;5044124;28;45461;-76
2022/01/08 03:33:46;;;;;;;;;1.25;1.25;;;;;19.71;39.94;100738.78;5062106;28;45342;-76
2022/01/08 03:36:11;;;;;;;;;2.00;2.00;;;;;19.71;39.94;100743.22;5062083;28;46245;-76
2022/01/08 03:38:37;;;;;;;;;3.00;2.75;;;;;19.70;40.17;100741.47;5061863;28;45357;-76
2022/01/08 03:41:02;;;;;;;;;3.25;3.00;;;;;19.70;39.78;100734.41;5060873;28;45575;-77
2022/01/08 03:43:27;;;;;;;;;4.25;2.50;;;;;19.66;40.04;100731.91;5043734;28;46859;-77
2022/01/08 03:45:53;;;;;;;;;3.25;2.00;;;;;19.72;40.32;100744.94;5043984;28;46186;-77
2022/01/08 03:51:02;;;;;;;;;3.00;2.25;;;;;19.71;40.23;100740.56;5047016;28;45422;-77
2022/01/08 03:53:27;;;;;;;;;2.25;1.50;;;;;19.71;39.74;100746.72;5026361;28;61723;-77
2022/01/08 03:55:53;;;;;;;;;3.00;3.00;;;;;19.70;39.78;100752.06;5060646;28;46350;-77
2022/01/08 03:58:19;;;;;;;;;4.25;3.75;;;;;19.70;39.58;100746.78;5027020;28;45443;-77
2022/01/08 04:00:45;;;;;;;;;2.75;1.75;;;;;19.69;39.67;100745.91;5026870;28;45213;-77
2022/01/08 04:03:10;;;;;;;;;6.25;2.50;;;;;19.69;39.94;100740.63;5027031;28;45193;-76
2022/01/08 04:05:36;;;;;;;;;4.00;3.00;;;;;19.69;39.72;100729.16;5061776;28;45230;-76
2022/01/08 04:08:01;;;;;;;;;5.75;3.00;;;;;19.71;39.93;100730.84;5061478;28;45157;-76
2022/01/08 04:10:27;;;;;;;;;3.00;3.00;;;;;19.71;39.81;100733.47;5060410;28;45929;-77
2022/01/08 04:12:56;;;;;;;;;5.00;3.25;;;;;19.73;39.80;100742.28;5061279;28;45270;-76
2022/01/08 04:17:48;;;;;;;;;5.50;4.00;;;;;19.74;39.50;100759.03;5060849;28;45385;-76
2022/01/08 04:20:13;;;;;;;;;3.25;3.25;;;;;19.74;39.65;100748.44;5043608;28;45252;-76
2022/01/08 04:22:38;;;;;;;;;4.00;4.00;;;;;19.73;39.64;100747.56;5059938;28;45505;-76
2022/01/08 04:25:04;;;;;;;;;2.50;2.00;;;;;19.71;39.57;100738.78;5061230;28;48707;-76
2022/01/08 04:27:29;;;;;;;;;2.50;1.50;;;;;19.71;39.81;100740.56;5059985;28;45209;-76
2022/01/08 04:29:55;;;;;;;;;2.25;2.25;;;;;19.68;39.58;100732.72;5059682;28;53935;-77
2022/01/08 04:32:20;;;;;;;;;4.50;4.00;;;;;19.66;39.95;100731.91;5042965;28;45290;-76
2022/01/08 04:34:45;;;;;;;;;3.00;2.50;;;;;19.68;40.03;100743.31;5042984;28;47237;-76
2022/01/08 04:37:11;;;;;;;;;3.00;3.00;;;;;19.67;40.23;100737.16;5042893;28;46166;-77
2022/01/08 04:39:36;;;;;;;;;2.50;2.00;;;;;19.69;39.73;100734.44;5059647;28;45201;-76
2022/01/08 04:42:02;;;;;;;;;3.00;3.00;;;;;19.71;40.20;100737.91;5026225;28;45455;-77
2022/01/08 04:44:27;;;;;;;;;2.75;2.75;;;;;19.70;40.05;100728.25;5059667;28;47045;-76
2022/01/08 04:46:53;;;;;;;;;4.00;2.50;;;;;19.71;40.27;100732.63;5042686;28;45262;-76
2022/01/08 04:49:18;;;;;;;;;3.50;2.50;;;;;19.72;40.02;100729.94;5042987;28;45327;-76
2022/01/08 04:51:43;;;;;;;;;3.00;3.00;;;;;19.74;40.20;100740.50;5059570;28;45383;-76
2022/01/08 04:54:09;;;;;;;;;4.75;4.00;;;;;19.69;40.29;100734.44;5058712;28;64529;-77
2022/01/08 04:56:34;;;;;;;;;3.50;3.00;;;;;19.72;39.95;100753.78;5060700;28;45444;-77
2022/01/08 04:59:00;;;;;;;;;3.00;3.00;;;;;19.74;40.43;100765.19;5042459;28;48356;-77
2022/01/08 05:01:25;;;;;;;;;3.75;3.00;;;;;19.73;40.33;100757.31;5042395;28;45346;-76
2022/01/08 05:03:50;;;;;;;;;4.25;4.00;;;;;19.74;39.77;100759.91;5042211;28;46140;-76
2022/01/08 05:06:16;;;;;;;;;3.00;3.00;;;;;19.76;40.06;100775.75;5042219;28;50744;-76
2022/01/08 05:08:42;;;;;;;;;4.25;4.25;;;;;19.76;39.57;100776.59;5042822;28;45280;-76
2022/01/08 05:11:07;;;;;;;;;2.75;2.50;;;;;19.76;39.97;100779.25;5059115;28;45311;-76
2022/01/08 05:13:32;;;;;;;;;7.75;4.00;;;;;19.79;40.18;100783.59;5058915;28;52179;-77
2022/01/08 05:15:59;;;;;;;;;5.00;4.75;;;;;19.79;40.03;100778.28;5042275;28;45501;-76
2022/01/08 05:18:25;;;;;;;;;6.00;5.00;;;;;19.78;39.99;100768.63;5042832;28;45279;-76
2022/01/08 05:21:06;;;;;;;;;4.00;3.00;;;;;19.77;40.09;100759.81;5042269;28;45289;-76
2022/01/08 05:23:31;;;;;;;;;2.75;2.25;;;;;19.80;39.95;100761.47;5044641;28;47640;-76
2022/01/08 05:25:57;;;;;;;;;5.00;3.75;;;;;19.79;40.08;100757.09;5041606;28;57571;-77
2022/01/08 05:28:22;;;;;;;;;3.50;3.00;;;;;19.81;39.87;100763.25;5058806;28;53782;-76
2022/01/08 05:30:47;;;;;;;;;4.00;3.75;;;;;19.83;39.73;100760.56;5041847;28;45308;-76
2022/01/08 05:33:13;;;;;;;;;3.75;3.75;;;;;19.81;39.95;100763.25;5042102;28;54197;-76
2022/01/08 05:35:38;;;;;;;;;4.50;3.25;;;;;19.81;39.92;100757.06;5060344;28;45219;-76
2022/01/08 05:38:04;;;;;;;;;2.75;2.75;;;;;19.82;40.18;100750.88;5025756;28;45300;-76
2022/01/08 05:40:30;;;;;;;;;5.00;4.00;;;;;19.81;39.89;100734.13;5041999;28;45267;-76
2022/01/08 05:42:55;;;;;;;;;2.50;2.50;;;;;19.80;39.96;100740.31;5042424;28;46581;-76
2022/01/08 05:45:21;;;;;;;;;6.25;3.00;;;;;19.77;40.14;100735.97;5041794;28;49257;-76
2022/01/08 05:47:46;;;;;;;;;4.00;2.00;;;;;19.73;39.89;100731.69;5042096;28;45339;-76
2022/01/08 05:50:12;;;;;;;;;4.00;2.00;;;;;19.73;39.64;100729.03;5041846;28;45237;-76
2022/01/08 05:52:37;;;;;;;;;2.00;2.00;;;;;19.72;39.86;100731.69;5041949;28;47032;-77
2022/01/08 05:55:03;;;;;;;;;7.25;4.00;;;;;19.70;40.35;100726.47;5041919;28;45327;-77
2022/01/08 05:57:29;;;;;;;;;2.25;2.25;;;;;19.70;40.04;100720.28;5060146;28;45314;-76
2022/01/08 05:59:54;;;;;;;;;3.00;3.00;;;;;19.69;40.02;100721.22;5058592;28;45347;-76
2022/01/08 06:02:19;;;;;;;;;2.00;2.00;;;;;19.69;40.02;100727.38;5041446;28;52960;-76
2022/01/08 06:04:45;;;;;;;;;3.50;1.75;;;;;19.69;40.16;100726.50;5058459;28;50495;-76
2022/01/08 06:07:10;;;;;;;;;3.00;2.00;;;;;19.68;40.59;100732.72;5058933;28;45378;-76
2022/01/08 06:09:36;;;;;;;;;2.50;2.00;;;;;19.69;40.49;100737.09;5058181;28;45405;-76
2022/01/08 06:12:01;;;;;;;;;2.00;2.00;;;;;19.70;40.35;100742.34;5025211;28;47917;-76
2022/01/08 06:14:27;;;;;;;;;3.25;3.25;;;;;19.67;40.06;100733.63;5058295;28;45323;-76
2022/01/08 06:16:52;;;;;;;;;6.00;2.50;;;;;19.70;39.94;100742.34;5061704;28;45785;-76
2022/01/08 06:19:18;;;;;;;;;5.00;3.00;;;;;19.70;40.14;100738.84;5061668;28;45359;-77
2022/01/08 06:21:43;;;;;;;;;5.00;4.00;;;;;19.67;41.62;100725.69;5062126;28;46448;-77
2022/01/08 06:24:08;;;;;;;;;5.25;4.00;;;;;19.85;42.65;100733.09;5063509;28;45268;-83
2022/01/08 06:26:34;;;;;;;;;2.25;2.00;;;;;19.98;43.27;100717.69;5061439;28;60387;-74
2022/01/08 06:29:00;;;;;;;;;7.50;5.00;;;;;20.12;43.93;100702.25;5061857;28;45246;-85
2022/01/08 06:31:25;;;;;;;;;154.50;143.50;;;;;20.34;43.75;100713.09;5044781;28;46312;-79
2022/01/08 06:33:51;;;;;;;;;94.25;88.75;;;;;20.56;43.64;100707.97;5060984;28;62361;-80
2022/01/08 06:36:19;;;;;;;;;83.00;76.75;;;;;20.75;43.55;100713.53;5045072;28;45456;-83
2022/01/08 06:38:46;;;;;;;;;62.75;50.00;;;;;20.91;42.93;100705.94;5061803;28;45780;-75
2022/01/08 06:41:11;;;;;;;;;58.75;47.75;;;;;21.19;42.59;100717.34;5061380;28;45453;-83
2022/01/08 06:43:36;;;;;;;;;55.50;45.00;;;;;21.35;42.38;100702.63;5044947;28;45452;-84
2022/01/08 06:46:02;;;;;;;;;45.25;37.25;;;;;21.50;42.53;100703.00;5044194;28;57268;-82
2022/01/08 06:48:27;;;;;;;;;37.75;33.00;;;;;21.62;42.24;100697.25;5044633;28;45619;-76
2022/01/08 06:50:53;;;;;;;;;34.75;33.50;;;;;21.67;42.08;100697.94;5044823;28;50562;-77
2022/01/08 06:53:18;;;;;;;;;30.50;28.75;;;;;21.66;42.61;100691.78;5028075;28;46002;-79
2022/01/08 06:55:44;;;;;;;;;29.50;28.00;;;;;21.71;42.29;100692.44;5027499;28;55660;-75
2022/01/08 06:58:09;;;;;;;;;29.00;28.00;;;;;21.72;42.71;100691.56;5044613;28;45734;-84
2022/01/08 07:00:35;;;;;;;;;23.50;21.50;;;;;21.69;43.20;100690.78;5027542;28;47204;-82
2022/01/08 07:03:00;;;;;;;;;21.75;20.00;;;;;21.69;42.98;100693.44;5044296;28;45267;-76
2022/01/08 07:05:26;;;;;;;;;22.75;21.25;;;;;21.69;43.33;100693.44;5062614;28;45235;-76
2022/01/08 07:07:51;;;;;;;;;21.25;20.00;;;;;21.65;44.22;100679.41;5027634;28;45419;-73
2022/01/08 07:10:17;;;;;;;;;24.50;21.50;;;;;21.68;44.28;100684.59;5060930;28;45499;-77
2022/01/08 07:12:42;;;;;;;;;17.75;17.25;;;;;21.70;44.65;100681.88;5027461;28;45445;-78
2022/01/08 07:15:08;;;;;;;;;25.50;19.00;;;;;21.70;45.02;100674.78;5027407;28;48463;-76
2022/01/08 07:17:34;;;;;;;;;24.00;19.00;;;;;21.73;44.18;100673.81;5027313;28;45446;-78
2022/01/08 07:19:59;;;;;;;;;16.50;16.50;;;;;21.68;43.96;100666.00;5027303;28;47079;-78
2022/01/08 07:22:25;;;;;;;;;18.75;16.50;;;;;21.72;43.81;100662.31;5043978;28;45452;-78
2022/01/08 07:24:50;;;;;;;;;21.00;18.75;;;;;21.68;43.33;100671.31;5044082;28;45734;-78
2022/01/08 07:27:16;;;;;;;;;14.25;14.25;;;;;21.65;43.37;100649.34;5043250;28;45448;-74
2022/01/08 07:29:41;;;;;;;;;20.00;16.75;;;;;21.69;43.90;100650.94;5060773;28;46944;-79
2022/01/08 07:32:07;;;;;;;;;14.50;14.50;;;;;21.71;43.44;100651.72;5043777;28;45429;-80
2022/01/08 07:34:32;;;;;;;;;15.75;13.00;;;;;21.70;42.83;100642.91;5027445;28;45399;-79
2022/01/08 07:36:58;;;;;;;;;15.00;14.00;;;;;21.66;43.28;100628.03;5043807;28;45438;-78
2022/01/08 07:39:23;;;;;;;;;14.50;13.00;;;;;21.69;42.98;100625.25;5026651;28;48346;-79
2022/01/08 07:41:49;;;;;;;;;13.25;12.50;;;;;21.64;42.66;100623.69;5027212;28;45183;-77
2022/01/08 07:44:14;;;;;;;;;12.50;9.50;;;;;21.74;43.01;100635.69;5027233;28;45480;-76
2022/01/08 07:46:40;;;;;;;;;13.50;11.75;;;;;21.66;42.65;100632.47;5060308;28;45316;-76
2022/01/08 07:49:05;;;;;;;;;11.50;10.25;;;;;21.69;42.92;100642.97;5077270;28;47972;-76
2022/01/08 07:51:34;;;;;;;;;13.75;12.25;;;;;21.69;42.80;100638.53;5077445;28;45259;-75
2022/01/08 07:54:00;;;;;;;;;10.00;9.25;;;;;21.75;43.24;100636.56;5077293;28;45326;-78
2022/01/08 07:56:25;;;;;;;;;12.75;10.75;;;;;21.69;43.14;100633.22;5076721;28;55986;-78
2022/01/08 07:58:50;;;;;;;;;12.50;11.50;;;;;21.64;42.99;100615.75;5077388;28;46738;-78
2022/01/08 08:01:16;;;;;;;;;11.00;10.00;;;;;21.70;42.89;100626.09;5078649;28;45640;-78
2022/01/08 08:03:41;;;;;;;;;14.00;11.00;;;;;21.71;43.07;100630.47;5077400;28;45335;-77
2022/01/08 08:06:10;;;;;;;;;11.75;10.50;;;;;21.67;42.87;100616.47;5094100;27;45550;-78
2022/01/08 08:08:36;;;;;;;;;16.50;11.25;;;;;21.68;43.14;100614.69;5094423;27;46672;-78
2022/01/08 08:11:01;;;;;;;;;12.25;9.50;;;;;21.69;42.76;100619.06;5076284;28;62586;-77
2022/01/08 08:13:26;;;;;;;;;9.50;9.50;;;;;21.68;42.96;100617.34;5061625;28;45277;-79
2022/01/08 08:15:52;;;;;;;;;9.50;9.50;;;;;21.68;43.20;100612.88;5059646;28;50196;-78
2022/01/08 08:18:17;;;;;;;;;6.50;6.50;;;;;21.71;43.09;100615.41;5060078;28;46160;-78
2022/01/08 08:20:43;;;;;;;;;7.25;6.75;;;;;21.71;42.63;100617.19;5043206;28;45285;-77
2022/01/08 08:23:08;;;;;;;;;11.75;7.75;;;;;21.71;42.67;100607.44;5059940;28;51623;-78
2022/01/08 08:25:34;;;;;;;;;8.00;8.00;;;;;21.68;43.00;100601.41;5026448;28;45457;-77
2022/01/08 08:27:59;;;;;;;;;9.75;9.00;;;;;21.71;42.76;100606.56;5042757;28;46432;-77
2022/01/08 08:30:24;;;;;;;;;13.25;8.25;;;;;21.69;43.01;100598.69;5059264;28;49713;-77
2022/01/08 08:32:50;;;;;;;;;10.00;9.50;;;;;21.70;42.86;100597.75;5026500;28;45422;-78
2022/01/08 08:35:16;;;;;;;;;12.00;7.50;;;;;21.70;42.75;100584.47;5059834;28;45498;-82
2022/01/08 08:37:41;;;;;;;;;9.00;7.25;;;;;21.70;42.79;100576.50;5042888;28;46282;-80
2022/01/08 08:40:09;;;;;;;;;9.75;7.00;;;;;21.69;43.26;100574.78;5041618;28;45439;-80
2022/01/08 08:42:34;;;;;;;;;9.50;8.00;;;;;21.67;43.22;100567.78;5043092;28;45240;-80
2022/01/08 08:44:59;;;;;;;;;10.00;8.00;;;;;21.67;43.54;100560.69;5026406;28;45289;-80
2022/01/08 08:47:25;;;;;;;;;10.00;7.75;;;;;21.69;43.32;100557.97;5059422;28;45689;-79
2022/01/08 08:49:50;;;;;;;;;6.25;6.00;;;;;21.69;42.99;100564.16;5060892;28;45181;-79
2022/01/08 08:52:16;;;;;;;;;4.50;4.25;;;;;21.66;43.43;100545.69;5025911;28;47863;-79
2022/01/08 08:54:42;;;;;;;;;6.25;5.00;;;;;21.70;43.62;100554.38;5059481;28;45464;-79
2022/01/08 08:57:08;;;;;;;;;5.00;5.00;;;;;21.69;43.37;100548.19;5059454;28;45698;-80
2022/01/08 08:59:33;;;;;;;;;7.50;5.50;;;;;21.72;43.25;100547.25;5060705;28;45566;-80
2022/01/08 09:01:59;;;;;;;;;5.00;4.00;;;;;21.71;43.24;100550.78;5059324;28;45342;-80
2022/01/08 09:04:24;;;;;;;;;8.00;7.25;;;;;21.71;43.17;100554.31;5059376;28;45540;-75
2022/01/08 09:06:50;;;;;;;;;5.25;5.25;;;;;21.71;43.53;100553.44;5042442;28;45642;-77
2022/01/08 09:09:15;;;;;;;;;7.50;6.25;;;;;21.72;43.04;100556.06;5042040;28;58780;-77
2022/01/08 09:11:41;;;;;;;;;8.25;7.00;;;;;21.72;43.56;100544.59;5060469;28;45320;-76
2022/01/08 09:14:07;;;;;;;;;6.00;5.00;;;;;21.72;43.67;100541.94;5060430;28;45564;-81
2022/01/08 09:16:33;;;;;;;;;6.00;6.00;;;;;21.71;43.31;100530.41;5041924;28;47868;-77
2022/01/08 09:18:59;;;;;;;;;6.75;6.00;;;;;21.75;43.02;100539.13;5059147;28;45490;-80
2022/01/08 09:21:24;;;;;;;;;4.75;4.50;;;;;21.63;42.29;100527.22;5060551;28;45231;-78
2022/01/08 09:23:50;;;;;;;;;6.25;5.25;;;;;21.49;42.87;100518.06;5062825;28;45146;-80
2022/01/08 09:26:15;;;;;;;;;7.25;5.25;;;;;21.42;42.60;100510.31;5059995;28;47493;-80
2022/01/08 09:28:41;;;;;;;;;10.25;5.50;;;;;21.31;42.29;100509.88;5025851;28;46017;-80
2022/01/08 09:31:09;;;;;;;;;5.00;5.00;;;;;21.27;42.19;100526.84;5058538;28;46037;-80
2022/01/08 09:33:36;;;;;;;;;7.75;4.50;;;;;21.12;42.41;100507.06;5058984;28;45593;-80
2022/01/08 09:36:01;;;;;;;;;5.50;5.50;;;;;21.13;42.79;100508.78;5075406;28;45505;-80
2022/01/08 09:38:26;;;;;;;;;4.25;4.25;;;;;21.07;42.81;100508.13;5075711;28;45441;-80
2022/01/08 09:40:52;;;;;;;;;6.00;4.00;;;;;21.01;42.66;100505.69;5092618;27;45405;-80
2022/01/08 09:43:17;;;;;;;;;7.00;5.75;;;;;20.99;43.13;100494.28;5060239;28;45326;-80
2022/01/08 09:45:44;;;;;;;;;6.00;3.00;;;;;20.98;42.97;100504.03;5041573;28;47286;-80
2022/01/08 09:48:09;;;;;;;;;6.25;6.00;;;;;20.97;42.96;100498.78;5058923;28;45283;-80
2022/01/08 09:50:34;;;;;;;;;4.50;4.00;;;;;20.95;43.21;100496.22;5075267;28;45822;-80
2022/01/08 09:53:00;;;;;;;;;5.50;4.00;;;;;20.87;43.17;100485.88;5058727;28;45295;-80
2022/01/08 09:55:28;;;;;;;;;6.00;5.25;;;;;20.87;43.13;100479.72;5059729;28;45546;-81
2022/01/08 09:57:55;;;;;;;;;4.50;4.50;;;;;20.82;43.60;100471.91;5058691;28;45319;-80
2022/01/08 10:00:20;;;;;;;;;6.50;5.00;;;;;20.73;43.40;100464.28;5059689;28;45477;-80
2022/01/08 10:02:46;;;;;;;;;7.75;6.00;;;;;20.72;43.26;100459.91;5059919;28;45507;-80
2022/01/08 10:05:13;;;;;;;;;5.00;4.25;;;;;20.73;43.53;100460.78;5041574;28;46312;-80
2022/01/08 10:07:40;;;;;;;;;6.75;5.00;;;;;20.71;43.77;100446.72;5041896;28;45337;-80
2022/01/08 10:10:16;;;;;;;;;6.25;5.00;;;;;20.69;44.17;100438.81;5041912;28;45304;-80
2022/01/08 10:12:43;;;;;;;;;7.00;5.00;;;;;20.68;44.30;100439.75;5075251;28;45240;-80
2022/01/08 10:17:52;;;;;;;;;4.00;4.00;;;;;20.59;44.59;100424.19;5059517;28;45306;-80
2022/01/08 10:20:37;;;;;;;;;7.25;4.50;;;;;20.60;44.84;100429.41;5058581;28;45282;-80
2022/01/08 10:23:11;;;;;;;;;6.25;3.25;;;;;20.61;44.45;100432.94;5058285;28;45472;-80
2022/01/08 10:25:36;;;;;;;;;3.50;3.50;;;;;20.53;44.63;100408.50;5059546;28;46339;-80
2022/01/08 10:28:02;;;;;;;;;4.00;4.00;;;;;20.55;44.51;100419.91;5058421;28;45299;-80
2022/01/08 10:30:27;;;;;;;;;5.50;4.25;;;;;20.52;44.72;100412.94;5041306;28;45272;-80
2022/01/08 10:32:59;;;;;;;;;3.75;3.75;;;;;20.55;44.78;100409.28;5058067;28;45300;-80
2022/01/08 10:35:52;;;;;;;;;8.00;3.75;;;;;20.57;45.05;100404.78;5059353;28;45522;-80
2022/01/08 10:38:17;;;;;;;;;5.75;3.00;;;;;20.51;44.53;100395.28;5057987;28;45253;-80
2022/01/08 10:40:43;;;;;;;;;5.75;3.75;;;;;20.51;44.94;100397.94;5057891;28;45471;-80
2022/01/08 10:43:29;;;;;;;;;4.00;2.50;;;;;20.52;44.71;100398.81;5059595;28;45424;-80
2022/01/08 10:45:57;;;;;;;;;4.50;4.50;;;;;20.52;45.13;100394.38;5057663;28;45364;-80
2022/01/08 10:48:30;;;;;;;;;4.75;4.00;;;;;20.46;45.17;100383.13;5041779;28;45235;-81
2022/01/08 10:51:17;;;;;;;;;4.25;3.00;;;;;20.43;45.01;100368.22;5041668;28;45296;-81
2022/01/08 10:53:57;;;;;;;;;4.25;3.00;;;;;20.40;45.38;100373.56;5058680;28;45272;-80
2022/01/08 10:56:26;;;;;;;;;4.25;4.25;;;;;20.36;45.33;100369.31;5043059;28;46848;-80
2022/01/08 10:58:59;;;;;;;;;4.75;3.00;;;;;20.37;45.47;100367.53;5059207;28;45299;-80
2022/01/08 11:01:45;;;;;;;;;6.25;4.50;;;;;20.24;45.58;100330.00;5042061;28;45189;-80
2022/01/08 11:04:12;;;;;;;;;4.75;4.75;;;;;20.32;45.80;100338.53;5063999;28;45327;-80
2022/01/08 11:07:01;;;;;;;;;5.25;4.00;;;;;20.30;45.66;100328.00;5045396;28;48421;-81
2022/01/08 11:09:27;;;;;;;;;6.25;4.75;;;;;20.29;45.39;100323.63;5061509;28;45356;-80
2022/01/08 11:11:53;;;;;;;;;3.50;2.75;;;;;20.32;45.85;100327.94;5044850;28;45501;-81
2022/01/08 11:17:06;;;;;;;;;6.50;4.50;;;;;20.32;46.04;100302.28;5062456;28;45577;-77
2022/01/08 11:19:32;;;;;;;;;3.00;3.00;;;;;20.38;46.25;100298.56;5063488;28;45222;-83
2022/01/08 11:21:57;;;;;;;;;4.25;4.00;;;;;20.35;46.07;100287.22;5030858;28;45404;-78
2022/01/08 11:24:23;;;;;;;;;28.50;25.75;;;;;20.41;47.01;100295.78;5061793;28;45295;-75
2022/01/08 11:26:51;;;;;;;;;441.25;390.75;;;;;20.40;48.32;100290.53;5061892;28;46628;-81
2022/01/08 11:29:19;;;;;;;;;245.25;224.00;;;;;20.38;48.04;100263.22;5040450;28;45516;-81
2022/01/08 11:31:44;;;;;;;;;181.50;166.50;;;;;20.54;47.96;100272.34;5044201;28;45311;-76
2022/01/08 11:34:12;;;;;;;;;155.75;140.75;;;;;20.55;47.45;100263.47;5060683;28;45584;-90
2022/01/08 11:36:43;;;;;;;;;126.75;114.00;;;;;20.56;47.63;100251.94;5044180;28;48215;-80
2022/01/08 11:39:09;;;;;;;;;83.00;77.00;;;;;20.61;47.11;100247.34;5044605;28;45347;-93
2022/01/08 11:41:35;;;;;;;;;73.75;60.25;;;;;20.58;47.20;100220.91;5049061;28;45302;-91
2022/01/08 11:44:04;;;;;;;;;67.00;52.50;;;;;20.65;46.77;100225.06;5045952;28;45434;-79
2022/01/08 11:46:56;;;;;;;;;56.50;46.25;;;;;20.69;46.69;100216.06;5046249;28;47284;-90
2022/01/08 11:49:24;;;;;;;;;46.75;36.25;;;;;20.62;45.93;100200.47;5044161;28;45485;-78